Time;durP1;ratioP1;P1;durP2;ratioP2;P2;SDS_P1;SDS_P2;PMS_P1;PMS_P2;Temp;Humidity;BMP_temperature;BMP_pressure;BME280_temperature;BME280_humidity;BME280_pressure;Samples;Min_cycle;Max_cycle;Signal;HPM_P1;HPM_P2
2022/05/25 00:01:15;;;;;;;15.40;11.73;;;9.90;99.90;;;;;;4945233;28;20502;-78
2022/05/25 00:03:41;;;;;;;18.08;11.45;;;9.90;99.90;;;;;;4944511;28;20058;-78
2022/05/25 00:06:08;;;;;;;18.45;10.93;;;9.90;99.90;;;;;;4950609;29;20585;-78
2022/05/25 00:08:34;;;;;;;15.95;10.63;;;9.80;99.90;;;;;;4951422;28;20058;-77
2022/05/25 00:11:00;;;;;;;14.43;10.55;;;9.80;99.90;;;;;;4951219;28;20118;-77
2022/05/25 00:13:25;;;;;;;14.70;11.35;;;9.70;99.90;;;;;;4950500;29;20449;-77
2022/05/25 00:15:51;;;;;;;13.32;10.70;;;9.70;99.90;;;;;;4948910;28;20063;-78
2022/05/25 00:18:17;;;;;;;14.20;10.68;;;9.70;99.90;;;;;;4947408;28;20034;-77
2022/05/25 00:20:43;;;;;;;15.68;10.73;;;9.70;99.90;;;;;;4953595;28;20094;-78
2022/05/25 00:23:09;;;;;;;14.88;10.15;;;9.70;99.90;;;;;;4949957;28;20031;-77
2022/05/25 00:25:37;;;;;;;14.38;11.07;;;9.70;99.90;;;;;;4951021;29;20046;-77
2022/05/25 00:28:11;;;;;;;11.90;9.85;;;9.70;99.90;;;;;;4944738;29;20077;-77
2022/05/25 00:30:38;;;;;;;13.05;10.07;;;9.70;99.90;;;;;;4951044;28;20063;-78
2022/05/25 00:33:04;;;;;;;13.00;10.63;;;9.70;99.90;;;;;;4943255;28;20392;-77
2022/05/25 00:35:32;;;;;;;16.50;10.73;;;9.70;99.90;;;;;;4934654;29;20038;-78
2022/05/25 00:37:58;;;;;;;13.38;10.85;;;9.70;99.90;;;;;;4951666;28;20028;-78
2022/05/25 00:40:36;;;;;;;14.02;10.18;;;9.70;99.90;;;;;;4953609;29;20199;-77
2022/05/25 00:43:02;;;;;;;15.45;9.80;;;9.70;99.90;;;;;;4950333;28;20066;-77
2022/05/25 00:45:33;;;;;;;12.70;10.40;;;9.70;99.90;;;;;;4947638;29;20023;-77
2022/05/25 00:48:00;;;;;;;16.88;10.07;;;9.60;99.90;;;;;;4951996;29;20038;-77
2022/05/25 00:50:26;;;;;;;13.05;9.48;;;9.60;99.90;;;;;;4944181;28;20046;-77
2022/05/25 00:52:52;;;;;;;15.05;9.35;;;9.60;99.90;;;;;;4948986;29;20031;-78
2022/05/25 00:55:28;;;;;;;13.63;10.00;;;9.60;99.90;;;;;;4951343;29;20487;-79
2022/05/25 00:57:57;;;;;;;13.77;9.32;;;9.60;99.90;;;;;;4947507;29;20117;-77
2022/05/25 01:00:25;;;;;;;12.75;9.60;;;9.60;99.90;;;;;;4951328;28;20503;-78
2022/05/25 01:02:57;;;;;;;11.20;8.98;;;9.60;99.90;;;;;;4951428;28;20130;-77
2022/05/25 01:05:31;;;;;;;10.95;8.85;;;9.60;99.90;;;;;;4952853;29;20114;-78
2022/05/25 01:08:34;;;;;;;12.00;9.30;;;9.60;99.90;;;;;;4947673;29;20535;-78
2022/05/25 01:11:36;;;;;;;15.48;9.02;;;9.60;99.90;;;;;;4948437;28;20506;-78
2022/05/25 01:14:25;;;;;;;13.18;8.68;;;9.60;99.90;;;;;;4946206;29;20558;-78
2022/05/25 01:17:12;;;;;;;13.68;8.70;;;9.60;99.90;;;;;;4950922;29;20114;-77
2022/05/25 01:20:14;;;;;;;13.95;9.60;;;9.60;99.90;;;;;;4951802;28;20488;-77
2022/05/25 01:23:04;;;;;;;12.95;9.45;;;9.60;99.90;;;;;;4950179;29;20038;-77
2022/05/25 01:26:07;;;;;;;13.68;8.95;;;9.60;99.90;;;;;;4951711;28;20023;-77
2022/05/25 01:28:45;;;;;;;15.35;9.35;;;9.60;99.90;;;;;;4943937;29;20023;-79
2022/05/25 01:31:17;;;;;;;10.55;8.63;;;9.50;99.90;;;;;;4952250;29;20098;-77
2022/05/25 01:34:11;;;;;;;12.18;8.57;;;9.60;99.90;;;;;;4945067;29;20044;-78
2022/05/25 01:36:52;;;;;;;13.05;9.15;;;9.50;99.90;;;;;;4931443;29;20048;-78
2022/05/25 01:39:22;;;;;;;11.23;9.63;;;9.50;99.90;;;;;;4938545;29;20051;-78
2022/05/25 01:42:15;;;;;;;12.00;9.13;;;9.50;99.90;;;;;;4947689;29;20046;-77
2022/05/25 01:44:45;;;;;;;12.93;8.52;;;9.60;99.90;;;;;;4953043;29;20023;-78
2022/05/25 01:47:12;;;;;;;13.93;10.50;;;9.60;99.90;;;;;;4950284;29;20031;-78
2022/05/25 01:50:15;;;;;;;17.10;9.63;;;9.60;99.90;;;;;;4950618;29;20046;-78
2022/05/25 01:52:45;;;;;;;16.10;9.43;;;9.70;99.90;;;;;;4945796;29;20035;-77
2022/05/25 01:55:20;;;;;;;15.70;9.55;;;9.60;99.90;;;;;;4951870;29;20506;-77
2022/05/25 01:57:52;;;;;;;17.83;9.63;;;9.60;99.90;;;;;;4949731;29;20035;-77
2022/05/25 02:00:34;;;;;;;17.15;9.98;;;9.60;99.90;;;;;;4952529;29;20047;-78
2022/05/25 02:06:08;;;;;;;11.38;9.43;;;9.60;99.90;;;;;;4943367;28;20038;-78
2022/05/25 02:09:12;;;;;;;12.52;9.60;;;9.60;99.90;;;;;;4929694;29;20114;-78
2022/05/25 02:11:44;;;;;;;11.95;8.23;;;9.60;99.90;;;;;;4951624;29;20479;-77
2022/05/25 02:14:52;;;;;;;17.17;10.02;;;9.60;99.90;;;;;;4950173;28;20082;-77
2022/05/25 02:17:37;;;;;;;17.25;10.68;;;9.70;99.90;;;;;;4946027;29;20024;-77
2022/05/25 02:20:10;;;;;;;15.52;10.30;;;9.60;99.90;;;;;;4947690;29;20480;-77
2022/05/25 02:22:47;;;;;;;15.93;10.23;;;9.60;99.90;;;;;;4947275;28;20063;-77
2022/05/25 02:25:30;;;;;;;14.00;9.88;;;9.60;99.90;;;;;;4950483;29;20028;-78
2022/05/25 02:28:05;;;;;;;17.25;9.48;;;9.70;99.90;;;;;;4951259;28;20031;-77
2022/05/25 02:30:35;;;;;;;19.25;9.77;;;9.70;99.90;;;;;;4932218;28;20031;-77
2022/05/25 02:33:10;;;;;;;15.35;9.60;;;9.70;99.90;;;;;;4953292;28;20027;-77
2022/05/25 02:35:39;;;;;;;15.05;10.40;;;9.70;99.90;;;;;;4952370;28;20080;-77
2022/05/25 02:38:06;;;;;;;15.07;9.77;;;9.70;99.90;;;;;;4952047;29;20031;-77
2022/05/25 02:40:34;;;;;;;16.13;10.30;;;9.70;99.90;;;;;;4937339;29;20428;-78
2022/05/25 02:43:00;;;;;;;16.27;10.70;;;9.60;99.90;;;;;;4952861;28;20090;-77
2022/05/25 02:45:26;;;;;;;15.75;11.18;;;9.60;99.90;;;;;;4954489;28;20035;-77
2022/05/25 02:47:51;;;;;;;16.10;10.95;;;9.60;99.90;;;;;;4946325;28;20047;-77
2022/05/25 02:50:17;;;;;;;16.23;11.68;;;9.60;99.90;;;;;;4952072;28;20557;-77
2022/05/25 02:52:42;;;;;;;16.10;11.75;;;9.60;99.90;;;;;;4948631;28;20028;-77
2022/05/25 02:55:08;;;;;;;15.93;10.68;;;9.60;99.90;;;;;;4946154;29;20019;-77
2022/05/25 02:57:34;;;;;;;17.65;11.77;;;9.50;99.90;;;;;;4955703;28;20110;-77
2022/05/25 03:00:00;;;;;;;13.40;10.43;;;9.50;99.90;;;;;;4949630;29;20023;-77
2022/05/25 03:02:25;;;;;;;16.77;11.10;;;9.50;99.90;;;;;;4951972;28;20055;-77
2022/05/25 03:04:51;;;;;;;16.73;10.70;;;9.50;99.90;;;;;;4950544;28;20440;-77
2022/05/25 03:07:17;;;;;;;15.27;10.85;;;9.50;99.90;;;;;;4951110;28;20038;-77
2022/05/25 03:09:42;;;;;;;14.65;11.20;;;9.50;99.90;;;;;;4950815;28;20387;-77
2022/05/25 03:12:08;;;;;;;17.60;11.18;;;9.50;99.90;;;;;;4948579;28;20500;-77
2022/05/25 03:14:35;;;;;;;18.88;12.13;;;9.50;99.90;;;;;;4952670;28;20043;-77
2022/05/25 03:17:15;;;;;;;17.75;11.90;;;9.50;99.90;;;;;;4950710;28;20431;-77
2022/05/25 03:19:51;;;;;;;18.23;12.45;;;9.50;99.90;;;;;;4952529;29;20443;-77
2022/05/25 03:22:17;;;;;;;17.15;12.35;;;9.50;99.90;;;;;;4952295;28;20507;-77
2022/05/25 03:24:42;;;;;;;19.63;12.65;;;9.40;99.90;;;;;;4947365;29;20023;-77
2022/05/25 03:27:07;;;;;;;16.40;12.20;;;9.40;99.90;;;;;;4954499;28;20062;-77
2022/05/25 03:29:33;;;;;;;18.40;12.10;;;9.40;99.90;;;;;;4953169;28;20027;-77
2022/05/25 03:32:00;;;;;;;22.73;12.75;;;9.30;99.90;;;;;;4953900;29;20027;-77
2022/05/25 03:34:26;;;;;;;17.50;13.68;;;9.30;99.90;;;;;;4952726;28;20038;-77
2022/05/25 03:36:57;;;;;;;19.85;13.05;;;9.30;99.90;;;;;;4923278;28;20567;-77
2022/05/25 03:39:25;;;;;;;19.17;14.00;;;9.30;99.90;;;;;;4926489;28;22154;-77
2022/05/25 03:41:57;;;;;;;26.45;14.35;;;9.30;99.90;;;;;;4930630;28;20039;-77
2022/05/25 03:44:23;;;;;;;24.23;13.32;;;9.30;99.90;;;;;;4926687;28;20031;-77
2022/05/25 03:46:50;;;;;;;20.85;13.48;;;9.20;99.90;;;;;;4929749;28;20039;-77
2022/05/25 03:49:16;;;;;;;23.33;15.55;;;9.20;99.90;;;;;;4927752;28;20746;-77
2022/05/25 03:51:42;;;;;;;19.45;13.93;;;9.20;99.90;;;;;;4925626;28;20027;-77
2022/05/25 03:54:08;;;;;;;21.02;15.98;;;9.20;99.90;;;;;;4925633;28;20419;-77
2022/05/25 03:56:34;;;;;;;23.52;15.32;;;9.20;99.90;;;;;;4924856;28;20471;-77
2022/05/25 03:59:00;;;;;;;22.13;15.23;;;9.20;99.90;;;;;;4927347;28;20095;-77
2022/05/25 04:01:25;;;;;;;25.35;15.63;;;9.20;99.90;;;;;;4925304;28;20043;-77
2022/05/25 04:03:51;;;;;;;21.67;14.98;;;9.20;99.90;;;;;;4923016;28;20039;-77
2022/05/25 04:06:16;;;;;;;21.73;14.48;;;9.20;99.90;;;;;;4931389;28;20035;-76
2022/05/25 04:08:42;;;;;;;19.95;14.27;;;9.20;99.90;;;;;;4924905;28;20043;-77
2022/05/25 04:11:07;;;;;;;18.52;13.95;;;9.20;99.90;;;;;;4934327;28;20107;-76
2022/05/25 04:13:33;;;;;;;20.33;14.75;;;9.20;99.90;;;;;;4951477;29;20035;-77
2022/05/25 04:15:59;;;;;;;19.52;13.48;;;9.20;99.90;;;;;;4947600;28;20086;-78
2022/05/25 04:18:24;;;;;;;22.60;14.88;;;9.30;99.90;;;;;;4950566;28;20491;-78
2022/05/25 04:20:50;;;;;;;18.70;13.52;;;9.30;99.90;;;;;;4949488;29;20031;-77
2022/05/25 04:23:15;;;;;;;17.90;13.50;;;9.30;99.90;;;;;;4942002;29;20038;-77
2022/05/25 04:25:41;;;;;;;19.83;13.38;;;9.40;99.90;;;;;;4954141;29;20485;-78
2022/05/25 04:28:07;;;;;;;21.35;12.27;;;9.40;99.90;;;;;;4952936;29;20125;-77
2022/05/25 04:30:33;;;;;;;19.23;13.05;;;9.40;99.90;;;;;;4948895;29;20027;-78
2022/05/25 04:33:01;;;;;;;18.13;12.48;;;9.50;99.90;;;;;;4951161;29;20407;-77
2022/05/25 04:35:27;;;;;;;19.05;12.60;;;9.50;99.90;;;;;;4952943;29;20039;-77
2022/05/25 04:37:53;;;;;;;17.88;12.23;;;9.60;99.90;;;;;;4951573;29;20033;-77
2022/05/25 04:40:28;;;;;;;17.83;12.32;;;9.70;99.90;;;;;;4935465;29;20502;-77
2022/05/25 04:42:56;;;;;;;16.40;11.10;;;9.80;99.90;;;;;;4946408;29;20066;-77
2022/05/25 04:45:25;;;;;;;28.60;14.95;;;9.80;99.90;;;;;;4944379;29;20083;-77
2022/05/25 04:47:51;;;;;;;16.17;11.80;;;9.90;99.90;;;;;;4949656;29;20042;-77
2022/05/25 04:50:19;;;;;;;20.60;12.85;;;10.00;99.90;;;;;;4954180;29;20027;-77
2022/05/25 04:52:45;;;;;;;15.85;10.85;;;10.10;99.90;;;;;;4953094;28;20501;-77
2022/05/25 04:57:19;;;;;;;17.05;10.77;;;10.10;99.90;;;;;;4947306;28;20033;-77
2022/05/25 04:57:58;;;;;;;14.10;9.80;;;10.30;99.90;;;;;;4941979;29;20142;-77
2022/05/25 05:00:24;;;;;;;13.55;8.30;;;10.40;99.90;;;;;;4952297;29;20387;-77
2022/05/25 05:02:49;;;;;;;14.77;8.52;;;10.70;99.90;;;;;;4950755;29;20097;-78
2022/05/25 05:05:17;;;;;;;10.40;7.85;;;10.90;99.90;;;;;;4948383;29;20499;-78
2022/05/25 05:07:43;;;;;;;10.73;7.63;;;11.10;99.90;;;;;;4950389;29;20064;-78
2022/05/25 05:10:09;;;;;;;11.32;6.88;;;11.20;99.90;;;;;;4950434;28;20149;-77
2022/05/25 05:12:34;;;;;;;7.60;6.45;;;11.40;99.90;;;;;;4942994;29;20046;-78
2022/05/25 05:15:00;;;;;;;10.93;5.90;;;11.70;99.90;;;;;;4947045;29;20035;-78
2022/05/25 05:17:26;;;;;;;11.23;5.90;;;12.00;99.90;;;;;;4950846;29;20050;-78
2022/05/25 05:19:51;;;;;;;6.57;4.53;;;12.40;99.90;;;;;;4949078;29;20031;-77
2022/05/25 05:22:17;;;;;;;9.90;5.03;;;12.70;99.90;;;;;;4951963;29;20039;-78
2022/05/25 05:24:43;;;;;;;6.47;4.80;;;13.00;99.90;;;;;;4944845;29;20035;-77
2022/05/25 05:27:09;;;;;;;6.28;4.15;;;13.20;99.90;;;;;;4946696;29;21337;-77
2022/05/25 05:29:35;;;;;;;10.27;4.90;;;13.40;99.90;;;;;;4949791;29;20023;-77
2022/05/25 05:32:00;;;;;;;10.70;3.88;;;13.60;99.90;;;;;;4950877;29;20459;-76
2022/05/25 05:34:28;;;;;;;5.97;4.00;;;13.70;99.90;;;;;;4934609;29;20032;-77
2022/05/25 05:37:05;;;;;;;8.18;4.13;;;13.90;99.90;;;;;;4951317;28;20027;-77
2022/05/25 05:39:36;;;;;;;6.38;3.88;;;13.90;99.90;;;;;;4951665;29;20476;-77
2022/05/25 05:42:05;;;;;;;7.65;4.47;;;13.90;99.90;;;;;;4948088;29;20550;-76
2022/05/25 05:44:37;;;;;;;6.18;4.82;;;13.80;99.90;;;;;;4947988;29;20038;-77
2022/05/25 05:47:07;;;;;;;7.95;5.57;;;13.60;99.90;;;;;;4930450;29;20032;-76
2022/05/25 05:49:34;;;;;;;8.77;5.65;;;13.50;99.90;;;;;;4952491;29;20073;-76
2022/05/25 05:52:00;;;;;;;9.88;5.85;;;13.40;99.90;;;;;;4950994;28;20032;-76
2022/05/25 05:54:26;;;;;;;15.40;6.05;;;13.30;99.90;;;;;;4946477;28;20034;-77
2022/05/25 05:56:52;;;;;;;9.35;6.25;;;13.30;99.90;;;;;;4951343;28;20032;-75
2022/05/25 05:59:17;;;;;;;8.57;5.93;;;13.20;99.90;;;;;;4926533;29;20211;-76
2022/05/25 06:01:45;;;;;;;11.30;6.47;;;13.20;99.90;;;;;;4937325;28;20101;-76
2022/05/25 06:04:11;;;;;;;15.07;7.68;;;13.20;99.90;;;;;;4947431;28;20019;-76
2022/05/25 06:06:36;;;;;;;12.10;7.18;;;13.20;99.90;;;;;;4940011;28;20039;-77
2022/05/25 06:09:02;;;;;;;10.30;6.78;;;13.20;99.90;;;;;;4955756;28;20035;-76
2022/05/25 06:11:28;;;;;;;16.70;6.65;;;13.20;99.90;;;;;;4956992;28;20039;-77
2022/05/25 06:13:53;;;;;;;12.32;6.70;;;13.20;99.90;;;;;;4952330;28;20023;-77
2022/05/25 06:21:47;;;;;;;11.18;6.45;;;13.40;99.90;;;;;;4946833;28;20063;-76
2022/05/25 06:24:13;;;;;;;11.75;6.95;;;13.40;99.90;;;;;;4953717;28;20028;-76
2022/05/25 06:26:38;;;;;;;14.70;6.60;;;13.60;99.90;;;;;;4953260;28;20124;-77
2022/05/25 06:29:04;;;;;;;13.07;7.28;;;13.60;99.90;;;;;;4949207;29;20063;-76
2022/05/25 06:31:31;;;;;;;14.93;7.30;;;13.60;99.90;;;;;;4956572;29;20388;-77
2022/05/25 06:33:57;;;;;;;12.52;6.63;;;13.70;99.90;;;;;;4955243;28;20031;-76
2022/05/25 06:36:28;;;;;;;9.50;6.57;;;13.70;99.90;;;;;;4952822;28;20027;-76
2022/05/25 06:38:56;;;;;;;14.98;6.68;;;13.70;99.90;;;;;;4938170;29;20024;-76
2022/05/25 06:41:22;;;;;;;14.48;7.63;;;13.70;99.90;;;;;;4953848;28;20035;-77
2022/05/25 06:43:48;;;;;;;11.07;6.40;;;13.80;99.90;;;;;;4954912;28;20479;-77
2022/05/25 06:46:18;;;;;;;12.85;7.82;;;13.80;99.90;;;;;;4953247;28;20447;-76
2022/05/25 06:48:45;;;;;;;15.02;6.95;;;13.80;99.90;;;;;;4953592;29;20058;-77
2022/05/25 06:51:22;;;;;;;17.40;7.97;;;13.80;99.90;;;;;;4949852;28;20106;-77
2022/05/25 06:53:49;;;;;;;11.00;6.55;;;13.90;99.90;;;;;;4954283;29;20027;-76
2022/05/25 06:56:19;;;;;;;9.90;6.43;;;13.90;99.90;;;;;;4951648;28;20035;-76
2022/05/25 06:58:44;;;;;;;13.30;7.30;;;14.00;99.90;;;;;;4956184;28;20216;-76
2022/05/25 07:01:10;;;;;;;9.63;6.32;;;13.90;99.90;;;;;;4952397;28;20523;-77
2022/05/25 07:03:38;;;;;;;10.85;6.53;;;13.80;99.90;;;;;;4954258;28;20031;-77
2022/05/25 07:06:08;;;;;;;10.00;7.32;;;13.90;99.90;;;;;;4952072;29;20023;-74
2022/05/25 07:08:34;;;;;;;13.05;6.70;;;14.00;99.90;;;;;;4956060;29;20494;-74
2022/05/25 07:11:00;;;;;;;12.48;6.78;;;14.00;99.90;;;;;;4955460;29;20026;-74
2022/05/25 07:13:27;;;;;;;13.65;7.47;;;14.00;99.90;;;;;;4953019;28;20506;-74
2022/05/25 07:16:01;;;;;;;11.98;7.15;;;14.00;99.90;;;;;;4944456;28;20038;-76
2022/05/25 07:18:28;;;;;;;13.70;6.65;;;14.20;99.90;;;;;;4941840;28;20028;-75
2022/05/25 07:21:02;;;;;;;15.60;7.55;;;14.30;99.90;;;;;;4936768;28;20500;-75
2022/05/25 07:23:28;;;;;;;13.05;8.20;;;14.40;99.90;;;;;;4953869;29;20029;-76
2022/05/25 07:25:54;;;;;;;16.38;9.15;;;14.50;99.90;;;;;;4936069;29;20150;-75
2022/05/25 07:28:19;;;;;;;12.45;9.32;;;14.60;99.90;;;;;;4954938;29;20035;-75
2022/05/25 07:30:47;;;;;;;14.13;10.27;;;14.60;99.90;;;;;;4954046;28;20073;-76
2022/05/25 07:33:13;;;;;;;15.15;11.57;;;14.80;99.90;;;;;;4954132;29;20028;-75
2022/05/25 07:35:38;;;;;;;13.77;10.38;;;14.90;99.90;;;;;;4946634;29;20491;-76
2022/05/25 07:38:05;;;;;;;14.63;10.05;;;15.00;99.90;;;;;;4935746;29;20385;-75
2022/05/25 07:40:35;;;;;;;16.63;10.55;;;15.00;99.90;;;;;;4936088;29;20071;-75
2022/05/25 07:43:09;;;;;;;14.00;11.02;;;15.00;99.90;;;;;;4948028;28;20055;-76
2022/05/25 07:45:36;;;;;;;13.90;10.02;;;14.90;99.90;;;;;;4952776;29;20507;-76
2022/05/25 07:48:02;;;;;;;12.88;10.43;;;14.80;99.90;;;;;;4942916;28;20046;-76
2022/05/25 07:50:29;;;;;;;14.27;11.60;;;14.70;99.90;;;;;;4950447;28;20031;-75
2022/05/25 07:52:56;;;;;;;17.02;13.13;;;14.80;99.90;;;;;;4953840;28;20377;-76
2022/05/25 07:55:23;;;;;;;15.88;12.98;;;14.80;99.90;;;;;;4954042;28;20063;-76
2022/05/25 07:57:48;;;;;;;15.00;12.73;;;14.80;99.90;;;;;;4953512;29;20058;-76
2022/05/25 08:00:15;;;;;;;16.17;13.23;;;14.80;99.90;;;;;;4955081;29;20066;-76
2022/05/25 08:05:49;;;;;;;17.50;13.20;;;15.20;99.90;;;;;;4955307;29;20038;-76
2022/05/25 08:08:18;;;;;;;13.98;12.57;;;15.50;99.90;;;;;;4949525;29;20098;-76
2022/05/25 08:10:49;;;;;;;13.50;12.27;;;15.60;99.90;;;;;;4950825;29;20060;-76
2022/05/25 08:13:17;;;;;;;13.80;12.38;;;15.50;99.90;;;;;;4950480;29;20058;-76
2022/05/25 08:15:44;;;;;;;16.48;12.93;;;15.40;99.90;;;;;;4944117;28;20059;-76
2022/05/25 08:18:14;;;;;;;14.60;12.77;;;15.50;99.90;;;;;;4953725;29;20114;-76
2022/05/25 08:20:41;;;;;;;16.20;13.27;;;15.70;99.90;;;;;;4954285;29;20031;-76
2022/05/25 08:23:08;;;;;;;14.77;13.27;;;15.90;99.90;;;;;;4951592;28;20396;-76
2022/05/25 08:25:34;;;;;;;16.38;14.05;;;16.00;99.90;;;;;;4953262;28;20038;-76
2022/05/25 08:28:00;;;;;;;17.33;13.07;;;16.20;99.90;;;;;;4948537;28;20027;-76
2022/05/25 08:30:26;;;;;;;16.10;14.43;;;16.30;99.90;;;;;;4952442;28;20093;-76
2022/05/25 08:32:52;;;;;;;15.43;13.88;;;16.40;99.90;;;;;;4951919;28;20110;-76
2022/05/25 08:35:17;;;;;;;16.75;14.43;;;16.40;99.90;;;;;;4953216;29;20086;-76
2022/05/25 08:37:43;;;;;;;15.82;13.93;;;16.40;99.90;;;;;;4951648;28;20376;-76
2022/05/25 08:40:11;;;;;;;18.15;15.15;;;16.30;99.90;;;;;;4953278;29;20036;-76
2022/05/25 08:42:45;;;;;;;18.50;16.55;;;16.20;99.90;;;;;;4947131;28;20126;-76
2022/05/25 08:45:12;;;;;;;18.25;15.90;;;16.10;99.90;;;;;;4950516;29;20031;-75
2022/05/25 08:47:44;;;;;;;18.23;16.27;;;16.20;99.90;;;;;;4952100;28;20028;-76
2022/05/25 08:50:10;;;;;;;18.73;16.65;;;16.30;99.90;;;;;;4953585;29;20106;-76
2022/05/25 08:52:37;;;;;;;20.10;17.15;;;16.30;99.90;;;;;;4953117;28;20114;-75
2022/05/25 08:55:07;;;;;;;19.92;17.83;;;16.40;99.90;;;;;;4943028;28;20031;-76
2022/05/25 08:57:40;;;;;;;23.92;20.13;;;16.40;99.90;;;;;;4936156;29;20078;-75
2022/05/25 09:00:15;;;;;;;26.83;21.02;;;16.40;99.90;;;;;;4953031;29;20021;-76
2022/05/25 09:03:18;;;;;;;23.63;21.02;;;16.50;99.90;;;;;;4951938;29;20047;-75
2022/05/25 09:06:07;;;;;;;28.65;24.23;;;16.60;99.90;;;;;;4941332;28;20039;-75
2022/05/25 09:09:10;;;;;;;27.20;24.33;;;16.60;99.90;;;;;;4950475;29;20113;-75
2022/05/25 09:11:44;;;;;;;;;;;16.60;99.90;;;;;;4869387;29;20037;-75
2022/05/25 09:14:34;;;;;;;23.15;20.63;;;16.70;99.90;;;;;;4938406;28;19914;-75
2022/05/25 09:17:06;;;;;;;23.45;21.05;;;16.90;99.90;;;;;;4946676;28;20111;-75
2022/05/25 09:19:36;;;;;;;22.45;19.60;;;17.00;99.90;;;;;;4950486;29;20042;-74
2022/05/25 09:22:06;;;;;;;22.73;19.08;;;16.90;99.90;;;;;;4951309;28;20509;-75
2022/05/25 09:24:32;;;;;;;22.42;20.13;;;16.90;99.90;;;;;;4951261;28;20057;-75
2022/05/25 09:26:59;;;;;;;20.35;18.02;;;16.90;99.90;;;;;;4934662;29;20089;-75
2022/05/25 09:29:25;;;;;;;19.85;16.33;;;16.90;99.90;;;;;;4930929;29;20024;-76
2022/05/25 09:31:55;;;;;;;17.90;16.20;;;16.90;99.90;;;;;;4944229;29;21056;-76
2022/05/25 09:34:50;;;;;;;18.48;16.67;;;16.90;99.90;;;;;;4952051;28;20492;-77
2022/05/25 09:37:32;;;;;;;15.98;14.27;;;17.00;99.90;;;;;;4941911;29;20040;-76
2022/05/25 09:40:03;;;;;;;15.68;14.05;;;17.00;99.90;;;;;;4944325;28;20455;-78
2022/05/25 09:42:34;;;;;;;14.77;13.27;;;17.10;99.90;;;;;;4917166;29;20058;-76
2022/05/25 09:45:00;;;;;;;11.93;10.73;;;17.20;99.90;;;;;;4947386;29;20035;-76
2022/05/25 09:47:41;;;;;;;13.20;11.27;;;17.40;99.90;;;;;;4952504;29;20106;-77
2022/05/25 09:50:13;;;;;;;11.93;10.52;;;17.40;99.90;;;;;;4947627;29;20022;-75
2022/05/25 09:52:46;;;;;;;11.05;9.95;;;17.50;99.90;;;;;;4948117;29;20432;-76
2022/05/25 09:55:42;;;;;;;11.52;10.50;;;17.60;99.90;;;;;;4952471;29;20046;-77
2022/05/25 09:58:14;;;;;;;12.23;9.25;;;17.90;99.90;;;;;;4950806;29;20035;-76
2022/05/25 10:00:50;;;;;;;10.15;9.15;;;18.10;99.90;;;;;;4944146;28;20035;-76
2022/05/25 10:03:43;;;;;;;8.95;7.82;;;18.20;99.90;;;;;;4945723;28;20437;-76
2022/05/25 10:06:34;;;;;;;6.88;6.22;;;18.40;99.90;;;;;;4948195;29;20106;-77
2022/05/25 10:09:21;;;;;;;6.80;5.32;;;18.70;99.90;;;;;;4951898;29;20031;-76
2022/05/25 10:11:53;;;;;;;4.47;4.05;;;18.90;99.90;;;;;;4950512;28;20392;-76
2022/05/25 10:14:24;;;;;;;3.20;2.95;;;18.90;99.90;;;;;;4952828;29;20087;-77
2022/05/25 10:16:52;;;;;;;5.05;2.40;;;18.90;99.30;;;;;;4951619;29;20036;-76
2022/05/25 10:19:19;;;;;;;3.88;2.30;;;19.00;98.90;;;;;;4950108;29;20413;-76
2022/05/25 10:21:56;;;;;;;2.55;2.20;;;19.10;98.50;;;;;;4950050;29;20039;-76
2022/05/25 10:24:32;;;;;;;4.53;1.73;;;19.10;97.60;;;;;;4939015;28;20027;-77
2022/05/25 10:27:00;;;;;;;4.32;1.50;;;19.10;97.90;;;;;;4952564;29;20031;-76
2022/05/25 10:38:27;;;;;;;2.10;0.60;;;19.70;94.50;;;;;;4939925;28;20074;-77
2022/05/25 10:40:54;;;;;;;2.53;0.65;;;19.40;94.30;;;;;;4951559;29;20102;-77
2022/05/25 10:43:26;;;;;;;2.10;0.70;;;19.10;94.30;;;;;;4939666;28;20034;-77
2022/05/25 10:45:54;;;;;;;3.42;0.73;;;18.70;94.00;;;;;;4941863;29;20031;-76
2022/05/25 10:48:43;;;;;;;2.10;0.70;;;18.40;94.70;;;;;;4951598;29;20087;-77
2022/05/25 10:51:14;;;;;;;4.32;0.70;;;18.40;95.10;;;;;;4940238;29;20499;-77
2022/05/25 10:54:44;;;;;;;4.22;0.85;;;18.50;94.70;;;;;;4943300;29;20090;-77
2022/05/25 10:56:49;;;;;;;4.70;0.70;;;18.40;94.30;;;;;;4955221;28;20038;-76
2022/05/25 10:59:30;;;;;;;2.67;1.00;;;18.40;94.50;;;;;;4954990;28;20106;-77
2022/05/25 11:02:20;;;;;;;3.33;1.23;;;18.30;94.90;;;;;;4945645;28;20058;-77
2022/05/25 11:05:09;;;;;;;3.47;1.33;;;18.20;94.70;;;;;;4952865;28;20290;-77
2022/05/25 11:07:43;;;;;;;2.25;0.85;;;18.10;94.50;;;;;;4948785;28;20023;-77
2022/05/25 11:10:27;;;;;;;3.72;1.17;;;17.90;94.40;;;;;;4940870;29;20170;-76
2022/05/25 11:13:14;;;;;;;3.15;1.02;;;17.80;94.40;;;;;;4954210;28;20081;-76
2022/05/25 11:15:45;;;;;;;3.83;0.90;;;17.70;94.50;;;;;;4939717;29;20035;-76
2022/05/25 11:18:42;;;;;;;3.13;0.90;;;17.60;94.50;;;;;;4954164;29;20058;-77
2022/05/25 11:21:22;;;;;;;2.75;0.93;;;17.60;94.70;;;;;;4953605;28;20117;-77
2022/05/25 11:24:03;;;;;;;2.47;1.35;;;17.50;95.00;;;;;;4954888;29;20023;-76
2022/05/25 11:26:54;;;;;;;4.43;1.60;;;17.40;95.20;;;;;;4954993;29;20353;-76
2022/05/25 11:29:46;;;;;;;3.25;1.40;;;17.30;95.20;;;;;;4950412;29;20031;-77
2022/05/25 11:32:31;;;;;;;1.42;0.80;;;17.20;95.90;;;;;;4951666;29;20035;-76
2022/05/25 11:35:26;;;;;;;3.70;0.70;;;17.20;95.70;;;;;;4954691;28;20062;-76
2022/05/25 11:37:54;;;;;;;2.28;0.50;;;17.30;95.80;;;;;;4923905;29;20035;-76
2022/05/25 11:40:32;;;;;;;1.30;0.50;;;17.50;95.50;;;;;;4943422;29;20028;-76
2022/05/25 11:43:27;;;;;;;3.92;0.80;;;17.80;95.40;;;;;;4953886;28;20039;-77
2022/05/25 11:46:08;;;;;;;2.65;0.60;;;18.00;94.30;;;;;;4951160;29;20028;-76
2022/05/25 11:48:58;;;;;;;2.47;0.65;;;17.80;93.40;;;;;;4938107;28;20032;-76
2022/05/25 11:51:32;;;;;;;4.45;1.10;;;17.70;93.50;;;;;;4954779;29;20049;-76
2022/05/25 11:54:18;;;;;;;2.80;0.90;;;17.60;93.90;;;;;;4951366;29;20031;-76
2022/05/25 11:56:58;;;;;;;2.10;0.82;;;17.80;94.40;;;;;;4941931;29;20028;-76
2022/05/25 11:59:51;;;;;;;4.22;0.70;;;18.00;94.00;;;;;;4949345;29;20046;-76
2022/05/25 12:02:44;;;;;;;4.25;0.80;;;18.00;93.90;;;;;;4940492;29;20047;-75
2022/05/25 12:05:46;;;;;;;2.08;0.95;;;18.20;93.60;;;;;;4945146;28;20480;-77
2022/05/25 12:08:53;;;;;;;2.17;1.00;;;18.50;93.50;;;;;;4931533;28;20570;-76
2022/05/25 12:12:04;;;;;;;2.28;0.73;;;19.00;93.30;;;;;;4933697;29;20032;-76
2022/05/25 12:15:01;;;;;;;3.13;0.60;;;19.20;92.40;;;;;;4952764;29;20035;-76
2022/05/25 12:17:42;;;;;;;3.20;0.73;;;19.20;91.30;;;;;;4952585;28;20055;-76
2022/05/25 12:20:10;;;;;;;4.65;0.60;;;19.20;91.00;;;;;;4951100;28;20023;-76
2022/05/25 12:22:37;;;;;;;2.22;0.52;;;19.40;91.10;;;;;;4954368;28;20094;-76
2022/05/25 12:25:15;;;;;;;2.40;0.70;;;19.60;89.90;;;;;;4953705;28;20098;-76
2022/05/25 12:27:44;;;;;;;0.90;0.40;;;19.90;89.10;;;;;;4953829;28;20069;-76
2022/05/25 12:30:17;;;;;;;3.85;0.52;;;20.00;88.40;;;;;;4953716;29;20035;-76
2022/05/25 12:32:44;;;;;;;1.70;0.47;;;20.10;86.70;;;;;;4954460;29;20137;-76
2022/05/25 12:35:14;;;;;;;2.03;0.50;;;19.90;86.10;;;;;;4950707;28;20050;-77
2022/05/25 12:37:43;;;;;;;1.73;0.50;;;19.70;84.00;;;;;;4946858;29;20071;-76
2022/05/25 12:40:12;;;;;;;2.10;0.40;;;19.30;83.40;;;;;;4953906;29;20399;-76
2022/05/25 12:42:41;;;;;;;4.15;0.47;;;19.00;84.20;;;;;;4942633;29;20130;-76
2022/05/25 12:48:33;;;;;;;2.80;0.40;;;18.40;85.90;;;;;;4947690;29;20058;-76
2022/05/25 12:51:26;;;;;;;0.88;0.30;;;18.20;86.40;;;;;;4952131;29;20023;-75
2022/05/25 12:53:54;;;;;;;;;;;18.00;84.80;;;;;;4934939;29;20068;-76
2022/05/25 12:56:21;;;;;;;1.20;0.20;;;17.90;84.80;;;;;;4947386;29;19950;-75
2022/05/25 12:58:46;;;;;;;1.08;0.22;;;17.90;85.10;;;;;;4951016;28;20035;-76
2022/05/25 13:01:14;;;;;;;3.03;0.63;;;18.00;84.00;;;;;;4939963;28;20047;-77
2022/05/25 13:04:15;;;;;;;1.58;0.30;;;18.20;84.10;;;;;;4953241;28;20094;-75
2022/05/25 13:06:43;;;;;;;1.30;0.30;;;18.40;83.30;;;;;;4948420;28;20027;-76
2022/05/25 13:09:28;;;;;;;0.90;0.20;;;18.50;83.90;;;;;;4945243;29;20055;-77
2022/05/25 13:12:00;;;;;;;3.85;0.32;;;18.60;83.20;;;;;;4943737;29;20031;-77
2022/05/25 13:14:45;;;;;;;1.58;0.20;;;18.60;82.80;;;;;;4946664;28;20081;-77
2022/05/25 13:17:43;;;;;;;1.15;0.20;;;18.60;83.80;;;;;;4937694;28;20450;-77
2022/05/25 13:20:54;;;;;;;1.52;0.32;;;18.80;83.40;;;;;;4945049;28;20023;-77
2022/05/25 13:24:01;;;;;;;3.40;0.20;;;18.90;83.40;;;;;;4949884;29;20492;-77
2022/05/25 13:26:43;;;;;;;2.60;0.30;;;19.10;83.60;;;;;;4909475;29;20094;-78
2022/05/25 13:29:36;;;;;;;0.80;0.20;;;19.30;82.70;;;;;;4951266;29;20436;-77
2022/05/25 13:32:12;;;;;;;1.40;0.20;;;19.30;82.40;;;;;;4904095;29;20055;-76
2022/05/25 13:34:38;;;;;;;2.95;0.20;;;19.30;82.60;;;;;;4950552;28;20102;-77